Dessel, Belgium
Current Conditions -  °F | °C
As of 7:25 PM on Saturday 25 Oct 2014 (Local Time) from EBBL Reporting Station
Few Clouds Few Clouds  
Wind Chill: 50°   Ceiling: Unl
Heat Index: 50°   Visibility: 6mi
Dew Point: 48°   Wind: 3mph
Humidity: 94%   Direction: 250°WSW
Pressure: 30.15"   Gusts: NA
Location:  51.24°N, 5.11°E
Report Text: EBBL 251725Z AUTO 25003KT 9999 FEW065/// 10/09 Q1021 BLU
Loading
Personal Weather Stations






























Interactive Weather Map
Tropical Storm Tracking
New forecast layout! Learn more

10-Day Weather Forecast

Advertisements
Track Severe Weather on mobile